Terminal Aerodrome Forecast
Issued by NWS

Home | Current Version | Previous Version | Text Only | Print | Product List | Glossary On
Versions: 1 2 3 4 5 6 7 8 9 10 11 12 13 14 15 16 17 18
000
FTUS43 KGRB 270525
TAFCWA
TAF
KCWA 270525Z 2706/2806 VRB03KT P6SM SCT040 BKN100
     FM270700 12003KT 6SM -RA BR SCT020 OVC060
     FM271000 09006KT 5SM -SHRA BR BKN010
     FM272100 08006KT 6SM BR VCSH BKN022=

USA.gov is the U.S. government's official web portal to all federal, state and local government web resources and services.